createdAt,value
2023-03-21T00:02:36.282Z,98009.00
2023-03-21T00:06:38.026Z,98007.00
2023-03-21T00:10:41.208Z,98005.00
2023-03-21T00:14:42.826Z,98000.00
2023-03-21T00:18:45.942Z,98013.00
2023-03-21T00:22:47.234Z,97998.00
2023-03-21T00:26:50.089Z,97998.00
2023-03-21T00:30:51.251Z,97995.00
2023-03-21T00:35:11.856Z,97999.00
2023-03-21T00:38:55.629Z,97986.00
2023-03-21T00:42:56.799Z,97984.00
2023-03-21T00:47:07.167Z,97982.00
2023-03-21T00:51:04.774Z,97977.00
2023-03-21T00:55:06.999Z,97978.00
2023-03-21T00:59:08.314Z,97977.00
2023-03-21T01:03:23.777Z,97965.00
2023-03-21T01:07:15.039Z,97966.00
2023-03-21T01:11:18.704Z,97963.00
2023-03-21T01:15:20.038Z,97959.00
2023-03-21T01:19:32.920Z,97953.00
2023-03-21T01:23:28.970Z,97956.00
2023-03-21T01:27:30.090Z,97949.00
2023-03-21T01:31:31.493Z,97951.00
2023-03-21T01:35:40.924Z,97950.00
2023-03-21T01:39:36.074Z,97948.00
2023-03-21T01:43:37.336Z,97958.00
2023-03-21T01:47:38.520Z,97939.00
2023-03-21T01:51:49.493Z,97935.00
2023-03-21T01:55:50.711Z,97947.00
2023-03-21T01:59:54.116Z,97953.00
2023-03-21T02:03:55.248Z,97948.00
2023-03-21T02:07:56.507Z,97935.00
2023-03-21T02:11:57.866Z,97930.00
2023-03-21T02:16:14.820Z,97923.00
2023-03-21T02:20:42.469Z,97922.00
2023-03-21T02:24:59.528Z,97919.00
2023-03-21T02:28:57.156Z,97918.00
2023-03-21T02:33:29.363Z,97906.00
2023-03-21T02:37:38.751Z,97904.00
2023-03-21T02:41:52.544Z,97903.00
2023-03-21T02:46:00.689Z,97903.00
2023-03-21T02:50:05.519Z,97898.00
2023-03-21T02:54:29.895Z,97893.00
2023-03-21T02:58:17.096Z,97895.00
2023-03-21T03:02:22.391Z,97892.00
2023-03-21T03:06:39.241Z,97891.00
2023-03-21T03:10:44.092Z,97891.00
2023-03-21T03:15:11.005Z,97894.00
2023-03-21T03:19:16.077Z,97899.00
2023-03-21T03:23:24.064Z,97900.00
2023-03-21T03:27:31.922Z,97894.00
2023-03-21T03:31:37.540Z,97898.00
2023-03-21T03:35:38.646Z,97870.00
2023-03-21T03:39:43.660Z,97871.00
2023-03-21T03:43:48.622Z,97872.00
2023-03-21T03:48:17.597Z,97877.00
2023-03-21T03:52:25.860Z,97878.00
2023-03-21T03:56:28.122Z,97874.00
2023-03-21T04:00:32.813Z,97873.00
2023-03-21T04:04:34.553Z,97863.00
2023-03-21T04:08:37.116Z,97863.00
2023-03-21T04:12:38.277Z,97864.00
2023-03-21T04:16:39.472Z,97859.00
2023-03-21T04:20:40.827Z,97860.00
2023-03-21T04:24:42.290Z,97854.00
2023-03-21T04:28:43.508Z,97852.00
2023-03-21T04:32:44.922Z,97858.00
2023-03-21T04:36:46.304Z,97852.00
2023-03-21T04:40:47.506Z,97851.00
2023-03-21T04:44:48.966Z,97853.00
2023-03-21T04:48:50.048Z,97850.00
2023-03-21T04:52:51.113Z,97845.00
2023-03-21T04:56:52.884Z,97847.00
2023-03-21T05:00:54.106Z,97848.00
2023-03-21T05:04:57.010Z,97834.00
2023-03-21T05:09:03.735Z,97840.00
2023-03-21T05:13:05.053Z,97842.00
2023-03-21T05:17:06.163Z,97841.00
2023-03-21T05:21:09.313Z,97839.00
2023-03-21T05:25:11.653Z,97844.00
2023-03-21T05:29:12.855Z,97839.00
2023-03-21T05:33:13.992Z,97844.00
2023-03-21T05:37:15.119Z,97833.00
2023-03-21T05:41:19.114Z,97833.00
2023-03-21T05:45:20.248Z,97823.00
2023-03-21T05:49:22.252Z,97821.00
2023-03-21T05:53:23.445Z,97819.00
2023-03-21T05:57:27.537Z,97836.00
2023-03-21T06:01:28.553Z,97836.00
2023-03-21T06:05:29.938Z,97850.00
2023-03-21T06:09:31.260Z,97843.00
2023-03-21T06:13:32.573Z,97844.00
2023-03-21T06:17:33.854Z,97843.00
2023-03-21T06:21:35.070Z,97850.00
2023-03-21T06:25:36.661Z,97850.00
2023-03-21T06:29:38.199Z,97844.00
2023-03-21T06:33:39.450Z,97846.00
2023-03-21T06:37:40.576Z,97844.00
2023-03-21T06:41:41.582Z,97855.00
2023-03-21T06:45:43.290Z,97850.00
2023-03-21T06:49:44.800Z,97850.00
2023-03-21T06:53:46.133Z,97850.00
2023-03-21T06:57:47.293Z,97844.00
2023-03-21T07:01:48.307Z,97842.00
2023-03-21T07:05:49.467Z,97756.00
2023-03-21T07:09:51.689Z,97846.00
2023-03-21T07:13:53.046Z,97854.00
2023-03-21T07:17:54.314Z,97860.00
2023-03-21T07:21:55.698Z,97856.00
2023-03-21T07:25:56.819Z,97865.00
2023-03-21T07:29:58.073Z,97859.00
2023-03-21T07:33:59.281Z,97862.00
2023-03-21T07:38:00.519Z,97865.00
2023-03-21T07:42:02.076Z,97862.00
2023-03-21T07:46:03.759Z,97864.00
2023-03-21T07:50:05.824Z,97854.00
2023-03-21T07:54:06.820Z,97858.00
2023-03-21T07:58:07.904Z,97866.00
2023-03-21T08:02:16.595Z,97773.00
2023-03-21T08:06:17.773Z,97862.00
2023-03-21T08:10:19.076Z,97877.00
2023-03-21T08:14:20.219Z,97867.00
2023-03-21T08:18:21.200Z,97858.00
2023-03-21T08:22:22.200Z,97860.00
2023-03-21T08:26:25.123Z,97854.00
2023-03-21T08:30:27.996Z,97861.00
2023-03-21T08:34:28.970Z,97857.00
2023-03-21T08:38:31.977Z,97867.00
2023-03-21T08:42:33.514Z,97876.00
2023-03-21T08:46:34.795Z,97869.00
2023-03-21T08:50:35.900Z,97871.00
2023-03-21T08:54:37.604Z,97872.00
2023-03-21T08:58:38.616Z,97867.00
2023-03-21T09:02:41.052Z,97878.00
2023-03-21T09:06:43.941Z,97870.00
2023-03-21T09:10:44.902Z,97872.00
2023-03-21T09:14:45.954Z,97865.00
2023-03-21T09:18:49.167Z,97867.00
2023-03-21T09:22:54.045Z,97871.00
2023-03-21T09:26:55.439Z,97871.00
2023-03-21T09:30:59.808Z,97875.00
2023-03-21T09:35:00.804Z,97868.00
2023-03-21T09:39:03.527Z,97864.00
2023-03-21T09:43:14.964Z,97865.00
2023-03-21T09:47:21.067Z,97878.00
2023-03-21T09:51:24.295Z,97871.00
2023-03-21T09:55:33.642Z,97877.00
2023-03-21T09:59:37.458Z,97868.00
2023-03-21T10:03:38.512Z,97870.00
2023-03-21T10:07:44.037Z,97877.00
2023-03-21T10:11:49.509Z,97878.00
2023-03-21T10:15:51.182Z,97863.00
2023-03-21T10:20:20.705Z,97865.00
2023-03-21T10:24:25.522Z,97861.00
2023-03-21T10:28:34.505Z,97865.00
2023-03-21T10:32:35.147Z,97854.00
2023-03-21T10:36:37.595Z,97854.00
2023-03-21T10:40:38.746Z,97859.00
2023-03-21T10:44:39.951Z,97863.00
2023-03-21T10:48:44.462Z,97868.00
2023-03-21T10:52:49.388Z,97867.00
2023-03-21T10:56:56.921Z,97874.00
2023-03-21T11:01:02.108Z,97865.00
2023-03-21T11:05:09.723Z,97873.00
2023-03-21T11:09:16.620Z,97870.00
2023-03-21T11:13:21.574Z,97876.00
2023-03-21T11:17:31.537Z,97874.00
2023-03-21T11:21:37.118Z,97872.00
2023-03-21T11:25:41.786Z,97871.00
2023-03-21T11:29:48.650Z,97874.00
2023-03-21T11:33:59.226Z,97875.00
2023-03-21T11:38:00.182Z,97862.00
2023-03-21T11:42:01.357Z,97854.00
2023-03-21T11:46:11.438Z,97855.00
2023-03-21T11:50:18.556Z,97865.00
2023-03-21T11:54:55.270Z,97855.00
2023-03-21T11:59:24.172Z,97847.00
2023-03-21T12:03:41.483Z,97835.00
2023-03-21T12:08:01.230Z,97829.00
2023-03-21T12:12:15.119Z,97826.00
2023-03-21T12:16:29.416Z,97822.00
2023-03-21T12:20:43.552Z,97818.00
2023-03-21T12:24:56.033Z,97817.00
2023-03-21T12:29:03.598Z,97809.00
2023-03-21T12:33:37.295Z,97803.00
2023-03-21T12:38:16.619Z,97805.00
2023-03-21T12:42:37.920Z,97793.00
2023-03-21T12:47:16.206Z,97798.00
2023-03-21T12:51:24.456Z,97791.00
2023-03-21T12:55:31.937Z,97777.00
2023-03-21T12:59:39.624Z,97774.00
2023-03-21T13:03:44.675Z,97770.00
2023-03-21T13:07:49.510Z,97777.00
2023-03-21T13:11:54.534Z,97775.00
2023-03-21T13:16:11.594Z,97770.00
2023-03-21T13:20:19.704Z,97766.00
2023-03-21T13:24:39.887Z,97752.00
2023-03-21T13:28:41.859Z,97754.00
2023-03-21T13:32:45.952Z,97740.00
2023-03-21T13:36:48.692Z,97736.00
2023-03-21T13:40:52.986Z,97743.00
2023-03-21T13:44:57.437Z,97725.00
2023-03-21T13:49:01.210Z,97727.00
2023-03-21T13:53:15.315Z,97719.00
2023-03-21T13:57:30.034Z,97719.00
2023-03-21T14:02:00.479Z,97721.00
2023-03-21T14:06:01.916Z,97709.00
2023-03-21T14:10:18.658Z,97700.00
2023-03-21T14:14:23.260Z,97687.00
2023-03-21T14:18:47.611Z,97693.00
2023-03-21T14:22:30.039Z,97693.00
2023-03-21T14:26:35.221Z,97683.00
2023-03-21T14:30:38.873Z,97677.00
2023-03-21T14:34:42.049Z,97679.00
2023-03-21T14:38:43.659Z,97694.00
2023-03-21T14:42:48.370Z,97738.00
2023-03-21T14:46:49.894Z,97694.00
2023-03-21T14:50:53.924Z,97686.00
2023-03-21T14:54:56.016Z,97668.00
2023-03-21T14:58:57.823Z,97667.00
2023-03-21T15:03:00.158Z,97655.00
2023-03-21T15:07:04.276Z,97663.00
2023-03-21T15:11:08.826Z,97658.00
2023-03-21T15:15:13.877Z,97660.00
2023-03-21T15:19:18.935Z,97672.00
2023-03-21T15:23:35.497Z,97658.00
2023-03-21T15:27:41.630Z,97653.00
2023-03-21T15:31:44.040Z,97633.00
2023-03-21T15:35:55.004Z,97627.00
2023-03-21T15:39:59.857Z,97628.00
2023-03-21T15:44:10.720Z,97627.00
2023-03-21T15:48:14.262Z,97544.00
2023-03-21T15:52:16.644Z,97626.00
2023-03-21T15:56:19.803Z,97625.00
2023-03-21T16:00:42.338Z,97629.00
2023-03-21T16:05:02.642Z,97632.00
2023-03-21T16:09:20.823Z,97628.00
2023-03-21T16:13:21.901Z,97620.00
2023-03-21T16:17:29.615Z,97612.00
2023-03-21T16:21:31.449Z,97606.00
2023-03-21T16:25:32.748Z,97592.00
2023-03-21T16:29:34.049Z,97584.00
2023-03-21T16:33:35.186Z,97587.00
2023-03-21T16:37:36.486Z,97594.00
2023-03-21T16:41:37.636Z,97605.00
2023-03-21T16:45:38.870Z,97605.00
2023-03-21T16:49:39.880Z,97606.00
2023-03-21T16:53:41.205Z,97600.00
2023-03-21T16:57:42.856Z,97604.00
2023-03-21T17:01:45.381Z,97594.00
2023-03-21T17:05:46.804Z,97579.00
2023-03-21T17:09:47.878Z,97582.00
2023-03-21T17:13:50.530Z,97578.00
2023-03-21T17:17:53.558Z,97573.00
2023-03-21T17:21:54.654Z,97571.00
2023-03-21T17:25:55.831Z,97572.00
2023-03-21T17:29:57.619Z,97573.00
2023-03-21T17:33:59.078Z,97583.00
2023-03-21T17:38:00.316Z,97592.00
2023-03-21T17:42:01.349Z,97589.00
2023-03-21T17:46:02.593Z,97595.00
2023-03-21T17:50:04.597Z,97588.00
2023-03-21T17:54:06.232Z,97596.00
2023-03-21T17:58:07.599Z,97587.00
2023-03-21T18:02:08.741Z,97593.00
2023-03-21T18:06:19.039Z,97603.00
2023-03-21T18:10:23.599Z,97599.00
2023-03-21T18:14:28.761Z,97478.00
2023-03-21T18:18:27.971Z,97595.00
2023-03-21T18:22:29.179Z,97602.00
2023-03-21T18:26:31.265Z,97600.00
2023-03-21T18:30:53.056Z,97603.00
2023-03-21T18:34:38.074Z,97605.00
2023-03-21T18:38:39.741Z,97610.00
2023-03-21T18:43:08.716Z,97613.00
2023-03-21T18:46:46.304Z,97607.00
2023-03-21T18:50:47.374Z,97613.00
2023-03-21T18:54:49.031Z,97615.00
2023-03-21T18:58:50.418Z,97613.00
2023-03-21T19:02:58.230Z,97618.00
2023-03-21T19:06:56.892Z,97606.00
2023-03-21T19:11:00.136Z,97602.00
2023-03-21T19:15:01.029Z,97608.00
2023-03-21T19:19:03.085Z,97604.00
2023-03-21T19:23:05.616Z,97597.00
2023-03-21T19:27:07.144Z,97602.00
2023-03-21T19:31:08.788Z,97591.00
2023-03-21T19:35:10.405Z,97597.00
2023-03-21T19:39:12.969Z,97591.00
2023-03-21T19:43:32.376Z,97601.00
2023-03-21T19:47:20.673Z,97601.00
2023-03-21T19:51:29.099Z,97594.00
2023-03-21T19:55:26.701Z,97595.00
2023-03-21T19:59:27.889Z,97606.00
2023-03-21T20:03:28.903Z,97613.00
2023-03-21T20:07:31.991Z,97606.00
2023-03-21T20:11:33.585Z,97608.00
2023-03-21T20:15:44.919Z,97608.00
2023-03-21T20:19:37.788Z,97608.00
2023-03-21T20:23:38.761Z,97595.00
2023-03-21T20:27:41.650Z,97607.00
2023-03-21T20:31:42.953Z,97609.00
2023-03-21T20:36:32.162Z,97598.00
2023-03-21T20:39:48.539Z,97594.00
2023-03-21T20:47:52.708Z,97597.00
2023-03-21T20:55:59.695Z,97584.00
2023-03-21T21:00:01.213Z,97617.00
2023-03-21T21:04:02.648Z,97579.00
2023-03-21T21:08:04.033Z,97570.00
2023-03-21T21:12:07.772Z,97590.00
2023-03-21T21:16:09.740Z,97584.00
2023-03-21T21:20:17.141Z,97582.00
2023-03-21T21:24:18.701Z,97592.00
2023-03-21T21:28:22.689Z,97583.00
2023-03-21T21:32:24.195Z,97587.00
2023-03-21T21:36:25.482Z,97590.00
2023-03-21T21:40:26.703Z,97577.00
2023-03-21T21:44:27.880Z,97572.00
2023-03-21T21:48:28.907Z,97572.00
2023-03-21T21:52:30.243Z,97572.00
2023-03-21T21:56:36.374Z,97565.00
2023-03-21T22:00:37.614Z,97555.00
2023-03-21T22:08:44.472Z,97547.00
2023-03-21T22:12:45.720Z,97546.00
2023-03-21T22:16:46.921Z,97539.00
2023-03-21T22:20:48.114Z,97549.00
2023-03-21T22:24:49.869Z,97547.00
2023-03-21T22:28:50.906Z,97479.00
2023-03-21T22:33:08.100Z,97552.00
2023-03-21T22:36:56.371Z,97548.00
2023-03-21T22:40:59.634Z,97547.00
2023-03-21T22:45:01.037Z,97552.00
2023-03-21T22:49:03.494Z,97554.00
2023-03-21T22:53:04.627Z,97560.00
2023-03-21T22:57:06.352Z,97547.00
2023-03-21T23:01:07.638Z,97542.00
2023-03-21T23:05:10.110Z,97540.00
2023-03-21T23:09:12.476Z,97540.00
2023-03-21T23:13:13.621Z,97545.00
2023-03-21T23:17:15.875Z,97543.00
2023-03-21T23:21:18.172Z,97540.00
2023-03-21T23:25:19.958Z,97535.00
2023-03-21T23:29:21.024Z,97533.00
2023-03-21T23:33:22.266Z,97550.00
2023-03-21T23:37:24.481Z,97539.00
2023-03-21T23:41:25.977Z,97533.00
2023-03-21T23:45:26.924Z,97536.00
2023-03-21T23:49:28.549Z,97533.00
2023-03-21T23:53:29.959Z,97532.00
2023-03-21T23:57:31.403Z,97525.00
